Quesnel Airport
CYQZ : now visible

Airfield :











YOU CAN JOIN US ON...

 
LOGIN :

Register | Disclaimer

   EN    FR    IT 

 









Legend :    VFR   Marginal VFR   IFR   Intensive IFR   Very Intensive IFR
Visi :
Ceiling :
>= 8 km
>= 3000ft
5 to 8 km
1000 to 3000 ft
1500m to 5 km
500 to 1000 ft
800 to 1500m
200 to 500 ft
< 800m
< 200 ft
Symbols :   Thunderstorms  Fog  Heavy snow  Heavy precipitations  Wind > 20 kt







- Airport Elevation : 1789 ft
- IATA code : YQZ


CYQZ - Quesnel

CURRENT METAR :
  • 201000Z AUTO 11003KT 1/4SM FG VV002 09/09 A2997 RMK SLP161

EXPIRED METARs :
  • 200953Z AUTO 14003KT 3/4SM BR OVC001 09/09 A2997 RMK SLP161
  • 200934Z AUTO 00000KT 9SM BKN001 OVC085 08/08 A2996 RMK SLP161
  • 200915Z AUTO VRB02KT 7SM FEW001 OVC085 08/08 A2996 RMK SLP161
  • 200851Z AUTO 00000KT 1 3/4SM BR SCT001 SCT070 OVC087 08/08 A2996 RMK SLP159
  • 200846Z AUTO VRB02KT 9SM SCT001 OVC085 08/08 A2996 RMK SLP159
  • 200822Z AUTO 00000KT 3/4SM BR BKN001 09/08 A2995 RMK SLP157
  • 200812Z AUTO VRB02KT 5/8SM BR BKN001 08/08 A2994 RMK SLP155
  • 200751Z AUTO 13002KT 9SM SCT003 BKN075 10/10 A2993 RMK SLP151
  • 200737Z AUTO VRB02KT 7SM OVC003 10/10 A2993 RMK SLP150
  • 200735Z AUTO VRB02KT 3SM BR OVC003 10/10 A2993 RMK SLP150
  • 200710Z AUTO 00000KT 9SM BKN003 BKN080 09/09 A2992 RMK SLP148

Expired Forecast.
No reported NOTAMs for that airfield.



MET'MAP, your aeronautical weather chart ! - Copyright ORBIFLY December 2007 - Disclaimer

ORBIFLY MET'MAP TEAM :

Programming & Development : Alexandra Zaïnal
Concept & Development : Baudouin d'Aumeries
Co-Development & Prog : Marc-Olivier Méhu
Technical & hardware support : Manuel Goepfert

Contact : metmap@orbifly.com




SOURCES & CREDITS :

   NOAA       Earth
Advisory